createdAt,value
2022-08-18T00:00:56.760Z,20.00
2022-08-18T00:01:56.837Z,19.20
2022-08-18T00:03:00.925Z,24.70
2022-08-18T00:03:59.365Z,20.70
2022-08-18T00:04:58.839Z,18.70
2022-08-18T00:05:56.705Z,20.60
2022-08-18T00:06:56.695Z,19.70
2022-08-18T00:07:56.672Z,22.30
2022-08-18T00:08:56.699Z,26.00
2022-08-18T00:09:56.652Z,18.90
2022-08-18T00:10:57.649Z,23.70
2022-08-18T00:11:56.634Z,20.00
2022-08-18T00:12:58.611Z,19.70
2022-08-18T00:13:56.593Z,27.60
2022-08-18T00:14:56.914Z,22.40
2022-08-18T00:15:56.596Z,27.40
2022-08-18T00:16:56.582Z,28.40
2022-08-18T00:17:56.581Z,23.50
2022-08-18T00:18:56.580Z,19.10
2022-08-18T00:19:56.577Z,21.60
2022-08-18T00:20:56.520Z,20.30
2022-08-18T00:21:56.537Z,24.20
2022-08-18T00:22:56.500Z,24.20
2022-08-18T00:23:56.497Z,21.10
2022-08-18T00:24:56.518Z,28.20
2022-08-18T00:25:56.513Z,22.10
2022-08-18T00:26:56.454Z,28.90
2022-08-18T00:27:56.495Z,35.40
2022-08-18T00:28:56.437Z,30.30
2022-08-18T00:29:56.463Z,27.00
2022-08-18T00:30:56.421Z,26.60
2022-08-18T00:31:56.435Z,26.70
2022-08-18T00:32:57.045Z,26.10
2022-08-18T00:33:56.380Z,19.40
2022-08-18T00:34:56.377Z,19.20
2022-08-18T00:35:56.349Z,20.80
2022-08-18T00:36:56.325Z,21.70
2022-08-18T00:37:57.366Z,19.90
2022-08-18T00:38:56.321Z,20.30
2022-08-18T00:39:56.467Z,19.10
2022-08-18T00:40:56.379Z,24.80
2022-08-18T00:41:56.358Z,21.00
2022-08-18T00:42:56.297Z,22.60
2022-08-18T00:43:56.301Z,27.10
2022-08-18T00:44:56.299Z,22.80
2022-08-18T00:45:56.233Z,18.60
2022-08-18T00:46:56.298Z,20.10
2022-08-18T00:47:56.473Z,22.60
2022-08-18T00:48:56.259Z,21.50
2022-08-18T00:49:56.210Z,20.70
2022-08-18T00:50:56.254Z,20.50
2022-08-18T00:51:56.196Z,23.30
2022-08-18T00:52:56.193Z,24.90
2022-08-18T00:53:56.209Z,27.50
2022-08-18T00:54:56.241Z,21.10
2022-08-18T00:55:56.153Z,25.60
2022-08-18T00:56:56.107Z,24.60
2022-08-18T00:57:56.135Z,25.30
2022-08-18T00:58:56.138Z,28.40
2022-08-18T00:59:56.133Z,28.70
2022-08-18T01:00:56.179Z,29.00
2022-08-18T01:01:56.110Z,24.10
2022-08-18T01:02:56.061Z,21.50
2022-08-18T01:03:56.075Z,19.80
2022-08-18T01:04:56.084Z,22.20
2022-08-18T01:05:56.020Z,25.10
2022-08-18T01:06:56.007Z,24.30
2022-08-18T01:07:56.022Z,25.00
2022-08-18T01:08:56.973Z,24.00
2022-08-18T01:09:56.044Z,20.00
2022-08-18T01:10:56.004Z,22.90
2022-08-18T01:11:56.016Z,29.90
2022-08-18T01:12:55.974Z,25.10
2022-08-18T01:13:55.942Z,28.30
2022-08-18T01:14:55.928Z,26.10
2022-08-18T01:15:55.958Z,31.10
2022-08-18T01:16:57.620Z,24.50
2022-08-18T01:17:55.909Z,27.80
2022-08-18T01:18:55.912Z,29.10
2022-08-18T01:19:55.875Z,25.60
2022-08-18T01:20:55.927Z,25.70
2022-08-18T01:21:55.955Z,25.30
2022-08-18T01:22:55.844Z,26.80
2022-08-18T01:23:55.799Z,27.50
2022-08-18T01:24:55.782Z,27.30
2022-08-18T01:25:55.767Z,28.90
2022-08-18T01:26:55.802Z,31.60
2022-08-18T01:27:55.827Z,33.00
2022-08-18T01:28:55.760Z,29.30
2022-08-18T01:29:55.773Z,32.40
2022-08-18T01:30:55.708Z,28.30
2022-08-18T01:31:56.386Z,34.80
2022-08-18T01:32:55.723Z,32.20
2022-08-18T01:33:55.707Z,34.70
2022-08-18T01:34:55.675Z,32.80
2022-08-18T01:35:55.673Z,30.70
2022-08-18T01:36:55.684Z,28.30
2022-08-18T01:37:55.668Z,26.30
2022-08-18T01:38:55.645Z,26.50
2022-08-18T01:41:20.956Z,30.30
2022-08-18T01:41:23.806Z,26.70
2022-08-18T01:41:56.643Z,27.70
2022-08-18T01:42:55.603Z,29.70
2022-08-18T01:43:55.612Z,24.90
2022-08-18T01:44:55.651Z,25.50
2022-08-18T01:45:55.559Z,28.70
2022-08-18T01:46:55.552Z,27.60
2022-08-18T01:47:55.568Z,29.80
2022-08-18T01:48:55.536Z,30.60
2022-08-18T01:49:55.519Z,28.70
2022-08-18T01:50:55.515Z,29.70
2022-08-18T01:51:55.492Z,31.10
2022-08-18T01:52:55.504Z,29.70
2022-08-18T01:53:55.476Z,31.40
2022-08-18T01:54:55.468Z,29.20
2022-08-18T01:55:55.449Z,30.70
2022-08-18T01:56:55.448Z,28.20
2022-08-18T01:57:55.442Z,31.80
2022-08-18T01:58:55.429Z,28.30
2022-08-18T01:59:55.414Z,33.20
2022-08-18T02:00:55.410Z,31.90
2022-08-18T02:01:55.420Z,28.40
2022-08-18T02:02:58.152Z,34.80
2022-08-18T02:04:10.918Z,29.10
2022-08-18T02:04:57.380Z,31.40
2022-08-18T02:05:55.384Z,28.40
2022-08-18T02:06:55.324Z,27.90
2022-08-18T02:07:55.337Z,28.10
2022-08-18T02:08:55.361Z,24.30
2022-08-18T02:09:55.326Z,25.40
2022-08-18T02:10:55.297Z,27.80
2022-08-18T02:11:55.792Z,28.70
2022-08-18T02:12:55.263Z,30.00
2022-08-18T02:13:55.869Z,30.00
2022-08-18T02:14:55.270Z,24.20
2022-08-18T02:15:55.309Z,24.00
2022-08-18T02:16:55.221Z,28.40
2022-08-18T02:17:56.281Z,28.50
2022-08-18T02:18:55.242Z,32.90
2022-08-18T02:19:55.209Z,30.90
2022-08-18T02:20:55.251Z,32.00
2022-08-18T02:21:55.262Z,33.40
2022-08-18T02:22:55.204Z,34.70
2022-08-18T02:23:55.210Z,30.00
2022-08-18T02:24:55.210Z,28.90
2022-08-18T02:25:55.182Z,29.10
2022-08-18T02:26:55.177Z,29.20
2022-08-18T02:27:55.185Z,27.20
2022-08-18T02:28:55.175Z,29.10
2022-08-18T02:29:55.131Z,31.10
2022-08-18T02:30:55.251Z,26.80
2022-08-18T02:31:55.086Z,32.30
2022-08-18T02:32:55.120Z,32.50
2022-08-18T02:33:55.138Z,29.70
2022-08-18T02:34:55.050Z,32.60
2022-08-18T02:35:55.058Z,32.10
2022-08-18T02:36:55.103Z,30.50
2022-08-18T02:37:55.107Z,33.60
2022-08-18T02:38:59.537Z,28.00
2022-08-18T02:39:55.095Z,31.00
2022-08-18T02:40:55.050Z,27.60
2022-08-18T02:41:54.974Z,31.00
2022-08-18T02:42:54.978Z,26.00
2022-08-18T02:44:07.078Z,30.10
2022-08-18T02:44:54.931Z,30.20
2022-08-18T02:45:54.919Z,31.20
2022-08-18T02:46:54.939Z,35.70
2022-08-18T02:47:54.959Z,33.60
2022-08-18T02:48:55.906Z,33.60
2022-08-18T02:49:54.920Z,34.40
2022-08-18T02:50:54.934Z,39.10
2022-08-18T02:51:54.894Z,40.70
2022-08-18T02:52:54.892Z,37.50
2022-08-18T02:53:55.926Z,37.10
2022-08-18T02:54:54.879Z,35.30
2022-08-18T02:55:54.823Z,31.80
2022-08-18T02:56:54.856Z,37.30
2022-08-18T02:57:54.886Z,32.40
2022-08-18T02:58:54.827Z,33.50
2022-08-18T02:59:54.791Z,37.50
2022-08-18T03:00:54.932Z,36.50
2022-08-18T03:01:54.758Z,35.50
2022-08-18T03:02:54.787Z,37.40
2022-08-18T03:03:54.729Z,34.70
2022-08-18T03:04:54.783Z,37.70
2022-08-18T03:05:54.743Z,36.90
2022-08-18T03:06:54.901Z,36.00
2022-08-18T03:07:54.703Z,38.90
2022-08-18T03:08:54.704Z,31.80
2022-08-18T03:09:54.679Z,37.90
2022-08-18T03:10:54.707Z,36.70
2022-08-18T03:11:54.738Z,39.40
2022-08-18T03:12:54.739Z,39.90
2022-08-18T03:13:54.671Z,33.70
2022-08-18T03:14:54.628Z,36.20
2022-08-18T03:15:56.849Z,37.10
2022-08-18T03:16:55.641Z,37.40
2022-08-18T03:17:54.853Z,40.10
2022-08-18T03:18:54.585Z,41.60
2022-08-18T03:19:54.588Z,32.40
2022-08-18T03:20:54.560Z,36.50
2022-08-18T03:21:54.556Z,33.30
2022-08-18T03:22:54.565Z,33.40
2022-08-18T03:24:01.420Z,30.80
2022-08-18T03:24:55.511Z,36.80
2022-08-18T03:25:54.545Z,35.70
2022-08-18T03:26:54.521Z,37.10
2022-08-18T03:27:54.480Z,37.00
2022-08-18T03:28:54.453Z,36.70
2022-08-18T03:29:54.524Z,36.20
2022-08-18T03:30:54.437Z,32.60
2022-08-18T03:31:54.449Z,30.00
2022-08-18T03:32:55.300Z,36.10
2022-08-18T03:33:54.937Z,33.80
2022-08-18T03:34:54.569Z,35.40
2022-08-18T03:35:54.449Z,37.10
2022-08-18T03:36:54.388Z,35.20
2022-08-18T03:37:54.421Z,33.70
2022-08-18T03:38:55.076Z,36.60
2022-08-18T03:39:54.413Z,35.50
2022-08-18T03:40:54.345Z,36.60
2022-08-18T03:41:59.863Z,38.30
2022-08-18T03:42:55.324Z,35.20
2022-08-18T03:43:54.381Z,41.30
2022-08-18T03:44:54.337Z,41.50
2022-08-18T03:45:54.309Z,39.20
2022-08-18T03:46:54.282Z,43.30
2022-08-18T03:47:54.356Z,43.50
2022-08-18T03:48:54.265Z,38.80
2022-08-18T03:49:54.830Z,39.70
2022-08-18T03:50:54.242Z,35.90
2022-08-18T03:51:54.242Z,37.70
2022-08-18T03:52:54.274Z,36.90
2022-08-18T03:53:54.594Z,38.70
2022-08-18T03:54:55.478Z,38.50
2022-08-18T03:55:55.029Z,39.20
2022-08-18T03:56:55.593Z,37.00
2022-08-18T03:57:56.188Z,35.90
2022-08-18T03:58:55.261Z,40.00
2022-08-18T03:59:55.714Z,37.40
2022-08-18T04:00:56.532Z,34.80
2022-08-18T04:01:56.426Z,37.60
2022-08-18T04:02:55.774Z,37.60
2022-08-18T04:03:54.132Z,39.30
2022-08-18T04:04:54.125Z,37.40
2022-08-18T04:05:54.095Z,37.30
2022-08-18T04:06:54.162Z,38.00
2022-08-18T04:07:54.063Z,36.80
2022-08-18T04:08:54.082Z,36.70
2022-08-18T04:09:54.075Z,48.30
2022-08-18T04:10:54.053Z,40.10
2022-08-18T04:11:54.018Z,38.30
2022-08-18T04:12:54.008Z,42.30
2022-08-18T04:13:54.111Z,38.30
2022-08-18T04:14:54.000Z,35.80
2022-08-18T04:15:54.078Z,41.00
2022-08-18T04:16:54.019Z,39.80
2022-08-18T04:18:03.293Z,38.40
2022-08-18T04:18:54.978Z,39.50
2022-08-18T04:19:54.685Z,39.80
2022-08-18T04:20:59.483Z,39.30
2022-08-18T04:21:54.843Z,35.30
2022-08-18T04:22:55.151Z,40.30
2022-08-18T04:23:56.238Z,38.70
2022-08-18T04:24:54.290Z,38.80
2022-08-18T04:25:54.319Z,36.20
2022-08-18T04:26:53.867Z,38.90
2022-08-18T04:27:53.919Z,40.30
2022-08-18T04:28:53.839Z,39.30
2022-08-18T04:29:53.878Z,39.20
2022-08-18T04:30:53.803Z,42.20
2022-08-18T04:31:53.827Z,43.20
2022-08-18T04:32:53.826Z,40.20
2022-08-18T04:33:53.784Z,41.50
2022-08-18T04:34:54.399Z,40.40
2022-08-18T04:35:54.776Z,38.30
2022-08-18T04:36:54.618Z,42.30
2022-08-18T04:37:54.768Z,45.40
2022-08-18T04:38:56.520Z,38.60
2022-08-18T04:39:54.743Z,38.60
2022-08-18T04:40:54.720Z,44.10
2022-08-18T04:41:54.636Z,39.40
2022-08-18T04:42:54.605Z,39.60
2022-08-18T04:43:54.941Z,40.60
2022-08-18T04:44:54.053Z,36.70
2022-08-18T04:45:54.747Z,40.40
2022-08-18T04:46:54.871Z,37.90
2022-08-18T04:47:54.621Z,37.50
2022-08-18T04:48:54.149Z,35.60
2022-08-18T04:49:55.315Z,34.20
2022-08-18T04:50:54.562Z,36.40
2022-08-18T04:52:26.636Z,39.40
2022-08-18T04:52:54.957Z,38.70
2022-08-18T04:53:53.628Z,31.50
2022-08-18T04:54:53.587Z,38.40
2022-08-18T04:55:53.591Z,40.00
2022-08-18T04:56:53.757Z,31.90
2022-08-18T04:57:53.786Z,39.10
2022-08-18T04:58:53.560Z,45.40
2022-08-18T04:59:53.497Z,38.10
2022-08-18T05:00:53.586Z,36.30
2022-08-18T05:01:53.505Z,39.00
2022-08-18T05:02:53.603Z,34.90
2022-08-18T05:03:54.381Z,35.70
2022-08-18T05:04:53.445Z,38.20
2022-08-18T05:05:53.445Z,37.80
2022-08-18T05:06:53.448Z,35.00
2022-08-18T05:07:53.559Z,35.50
2022-08-18T05:08:53.429Z,38.90
2022-08-18T05:09:53.461Z,39.80
2022-08-18T05:10:53.385Z,38.90
2022-08-18T05:11:53.408Z,45.10
2022-08-18T05:12:53.449Z,40.50
2022-08-18T05:13:53.365Z,40.60
2022-08-18T05:14:53.651Z,42.40
2022-08-18T05:16:10.163Z,40.30
2022-08-18T05:16:55.373Z,38.40
2022-08-18T05:17:53.655Z,43.20
2022-08-18T05:18:53.396Z,39.90
2022-08-18T05:19:53.366Z,42.00
2022-08-18T05:20:53.376Z,42.00
2022-08-18T05:21:53.330Z,43.70
2022-08-18T05:22:53.469Z,46.60
2022-08-18T05:23:53.283Z,45.40
2022-08-18T05:24:53.557Z,49.90
2022-08-18T05:25:53.290Z,45.00
2022-08-18T05:26:54.144Z,52.50
2022-08-18T05:27:53.486Z,46.30
2022-08-18T05:29:04.479Z,50.60
2022-08-18T05:29:54.313Z,45.40
2022-08-18T05:30:54.047Z,48.10
2022-08-18T05:31:53.197Z,51.30
2022-08-18T05:32:54.027Z,48.60
2022-08-18T05:33:53.158Z,52.40
2022-08-18T05:34:53.557Z,45.00
2022-08-18T05:35:53.150Z,46.60
2022-08-18T05:36:54.022Z,46.20
2022-08-18T05:37:53.316Z,44.20
2022-08-18T05:38:53.987Z,49.70
2022-08-18T05:39:53.110Z,46.60
2022-08-18T05:40:53.259Z,44.10
2022-08-18T05:41:54.063Z,47.30
2022-08-18T05:42:53.167Z,44.00
2022-08-18T05:43:53.079Z,46.60
2022-08-18T05:44:53.287Z,41.50
2022-08-18T05:45:53.038Z,48.10
2022-08-18T05:46:53.007Z,46.70
2022-08-18T05:47:53.226Z,46.70
2022-08-18T05:48:53.583Z,54.10
2022-08-18T05:49:52.971Z,50.00
2022-08-18T05:50:52.960Z,52.60
2022-08-18T05:51:52.967Z,53.20
2022-08-18T05:52:52.960Z,55.10
2022-08-18T05:53:52.951Z,54.20
2022-08-18T05:54:53.092Z,54.40
2022-08-18T05:55:52.928Z,51.70
2022-08-18T05:56:52.875Z,53.80
2022-08-18T05:57:53.082Z,56.30
2022-08-18T05:58:52.910Z,57.20
2022-08-18T05:59:52.876Z,60.40
2022-08-18T06:00:56.261Z,63.20
2022-08-18T06:01:53.947Z,66.70
2022-08-18T06:02:52.899Z,62.90
2022-08-18T06:03:52.958Z,62.10
2022-08-18T06:04:52.833Z,71.10
2022-08-18T06:05:52.854Z,71.30
2022-08-18T06:06:52.853Z,68.70
2022-08-18T06:07:53.117Z,73.70
2022-08-18T06:08:52.792Z,67.00
2022-08-18T06:09:52.765Z,69.10
2022-08-18T06:10:52.785Z,67.40
2022-08-18T06:11:52.777Z,62.20
2022-08-18T06:12:52.728Z,62.30
2022-08-18T06:13:59.016Z,64.40
2022-08-18T06:14:53.717Z,71.10
2022-08-18T06:15:52.724Z,69.80
2022-08-18T06:16:52.711Z,66.60
2022-08-18T06:17:52.834Z,66.90
2022-08-18T06:18:52.702Z,69.60
2022-08-18T06:19:52.663Z,76.70
2022-08-18T06:20:52.636Z,71.90
2022-08-18T06:21:52.809Z,73.00
2022-08-18T06:22:55.185Z,72.20
2022-08-18T06:23:52.616Z,79.50
2022-08-18T06:24:52.613Z,82.60
2022-08-18T06:25:52.601Z,81.80
2022-08-18T06:26:52.582Z,90.60
2022-08-18T06:27:52.809Z,80.40
2022-08-18T06:28:52.574Z,82.50
2022-08-18T06:29:52.553Z,86.40
2022-08-18T06:30:52.533Z,85.70
2022-08-18T06:31:52.522Z,80.90
2022-08-18T06:32:52.550Z,96.60
2022-08-18T06:33:52.505Z,94.60
2022-08-18T06:34:52.529Z,89.30
2022-08-18T06:35:52.491Z,84.30
2022-08-18T06:36:52.468Z,79.20
2022-08-18T06:37:52.583Z,76.80
2022-08-18T06:38:52.442Z,71.70
2022-08-18T06:39:53.083Z,72.40
2022-08-18T06:40:52.494Z,76.70
2022-08-18T06:41:52.518Z,78.80
2022-08-18T06:42:52.385Z,74.00
2022-08-18T06:43:52.465Z,71.50
2022-08-18T06:44:52.381Z,72.20
2022-08-18T06:45:52.394Z,78.20
2022-08-18T06:46:53.682Z,74.40
2022-08-18T06:47:52.511Z,79.00
2022-08-18T06:48:52.340Z,71.80
2022-08-18T06:49:52.317Z,71.10
2022-08-18T06:50:52.357Z,73.30
2022-08-18T06:51:52.322Z,74.40
2022-08-18T06:52:52.293Z,79.40
2022-08-18T06:53:52.289Z,93.70
2022-08-18T06:54:52.303Z,87.00
2022-08-18T06:55:52.276Z,85.40
2022-08-18T06:56:52.300Z,93.50
2022-08-18T06:57:52.396Z,97.00
2022-08-18T06:58:53.301Z,100.40
2022-08-18T06:59:54.062Z,90.70
2022-08-18T07:00:55.968Z,93.90
2022-08-18T07:01:52.412Z,94.20
2022-08-18T07:02:52.213Z,93.60
2022-08-18T07:03:52.270Z,100.60
2022-08-18T07:04:52.460Z,89.70
2022-08-18T07:05:52.341Z,90.20
2022-08-18T07:06:52.180Z,94.60
2022-08-18T07:07:52.502Z,89.80
2022-08-18T07:08:52.884Z,94.10
2022-08-18T07:09:52.231Z,90.80
2022-08-18T07:10:52.891Z,99.30
2022-08-18T07:11:52.906Z,92.10
2022-08-18T07:12:52.997Z,96.20
2022-08-18T07:14:09.457Z,95.00
2022-08-18T07:14:54.215Z,94.60
2022-08-18T07:15:52.091Z,106.10
2022-08-18T07:16:58.765Z,112.50
2022-08-18T07:17:54.623Z,105.20
2022-08-18T07:18:52.028Z,112.00
2022-08-18T07:19:52.003Z,106.70
2022-08-18T07:20:52.077Z,107.20
2022-08-18T07:21:52.157Z,110.00
2022-08-18T07:22:52.131Z,107.50
2022-08-18T07:24:14.125Z,103.20
2022-08-18T07:24:54.026Z,99.80
2022-08-18T07:25:52.830Z,115.30
2022-08-18T07:26:52.890Z,107.90
2022-08-18T07:27:52.077Z,109.60
2022-08-18T07:28:52.530Z,106.00
2022-08-18T07:29:51.926Z,109.10
2022-08-18T07:31:15.460Z,107.40
2022-08-18T07:31:53.907Z,111.10
2022-08-18T07:32:52.904Z,108.70
2022-08-18T07:33:51.870Z,116.30
2022-08-18T07:34:53.278Z,109.70
2022-08-18T07:35:51.848Z,114.90
2022-08-18T07:36:51.852Z,115.30
2022-08-18T07:37:51.987Z,111.70
2022-08-18T07:38:51.802Z,110.90
2022-08-18T07:39:51.847Z,111.10
2022-08-18T07:40:51.824Z,109.10
2022-08-18T07:41:51.765Z,110.00
2022-08-18T07:42:54.446Z,110.00
2022-08-18T07:43:52.775Z,113.90
2022-08-18T07:44:51.789Z,107.00
2022-08-18T07:45:51.782Z,116.60
2022-08-18T07:46:51.704Z,114.20
2022-08-18T07:47:51.901Z,115.80
2022-08-18T07:48:51.698Z,116.20
2022-08-18T07:50:15.666Z,116.00
2022-08-18T07:50:58.038Z,110.60
2022-08-18T07:51:53.666Z,113.80
2022-08-18T07:52:51.666Z,116.40
2022-08-18T07:53:55.543Z,119.70
2022-08-18T07:54:51.640Z,118.30
2022-08-18T07:55:51.629Z,111.70
2022-08-18T07:56:51.594Z,114.20
2022-08-18T07:57:51.572Z,108.40
2022-08-18T07:58:51.598Z,108.20
2022-08-18T07:59:51.574Z,104.30
2022-08-18T08:00:59.887Z,109.00
2022-08-18T08:01:52.607Z,111.40
2022-08-18T08:02:55.053Z,104.30
2022-08-18T08:03:51.606Z,101.80
2022-08-18T08:04:51.558Z,104.00
2022-08-18T08:05:51.482Z,101.70
2022-08-18T08:07:20.738Z,96.00
2022-08-18T08:07:53.743Z,101.40
2022-08-18T08:08:51.490Z,98.80
2022-08-18T08:09:52.169Z,97.60
2022-08-18T08:10:52.453Z,90.40
2022-08-18T08:11:51.586Z,95.10
2022-08-18T08:12:51.419Z,94.30
2022-08-18T08:13:55.556Z,96.90
2022-08-18T08:14:53.450Z,96.40
2022-08-18T08:15:51.454Z,97.50
2022-08-18T08:16:51.426Z,95.50
2022-08-18T08:17:51.656Z,97.10
2022-08-18T08:18:51.367Z,98.80
2022-08-18T08:20:03.182Z,93.00
2022-08-18T08:20:53.375Z,99.80
2022-08-18T08:21:52.949Z,89.30
2022-08-18T08:22:51.314Z,99.70
2022-08-18T08:23:51.315Z,98.00
2022-08-18T08:24:51.307Z,99.50
2022-08-18T08:25:51.358Z,98.80
2022-08-18T08:26:51.311Z,101.20
2022-08-18T08:27:51.473Z,100.10
2022-08-18T08:28:55.572Z,95.70
2022-08-18T08:29:52.283Z,98.60
2022-08-18T08:30:51.239Z,98.50
2022-08-18T08:31:51.239Z,94.90
2022-08-18T08:32:52.349Z,92.50
2022-08-18T08:33:51.206Z,95.90
2022-08-18T08:34:51.216Z,95.50
2022-08-18T08:35:51.235Z,95.60
2022-08-18T08:36:51.175Z,93.20
2022-08-18T08:37:51.355Z,98.40
2022-08-18T08:38:51.173Z,102.50
2022-08-18T08:39:51.259Z,98.60
2022-08-18T08:40:51.151Z,98.60
2022-08-18T08:41:51.212Z,100.50
2022-08-18T08:42:51.125Z,103.70
2022-08-18T08:43:51.153Z,99.00
2022-08-18T08:45:17.683Z,97.70
2022-08-18T08:45:51.325Z,90.00
2022-08-18T08:46:51.259Z,88.00
2022-08-18T08:47:51.306Z,95.10
2022-08-18T08:48:51.503Z,88.00
2022-08-18T08:49:59.052Z,88.90
2022-08-18T08:50:52.040Z,90.40
2022-08-18T08:51:51.015Z,94.20
2022-08-18T08:52:51.040Z,95.70
2022-08-18T08:53:50.950Z,95.00
2022-08-18T08:54:50.961Z,93.10
2022-08-18T08:55:50.991Z,101.30
2022-08-18T08:56:51.001Z,100.20
2022-08-18T08:57:51.156Z,99.40
2022-08-18T08:58:50.921Z,102.00
2022-08-18T08:59:50.900Z,105.10
2022-08-18T09:00:52.347Z,97.70
2022-08-18T09:01:50.970Z,101.30
2022-08-18T09:02:50.936Z,94.60
2022-08-18T09:03:50.853Z,91.10
2022-08-18T09:04:54.892Z,87.60
2022-08-18T09:05:56.634Z,93.80
2022-08-18T09:06:53.416Z,92.70
2022-08-18T09:07:50.814Z,90.40
2022-08-18T09:08:50.789Z,93.20
2022-08-18T09:09:51.117Z,95.30
2022-08-18T09:10:50.832Z,89.90
2022-08-18T09:11:50.797Z,91.10
2022-08-18T09:12:50.957Z,94.80
2022-08-18T09:13:50.757Z,89.40
2022-08-18T09:14:50.730Z,91.70
2022-08-18T09:15:50.802Z,98.50
2022-08-18T09:16:50.706Z,94.20
2022-08-18T09:17:50.776Z,93.80
2022-08-18T09:18:50.707Z,90.20
2022-08-18T09:19:50.680Z,85.90
2022-08-18T09:20:50.842Z,91.10
2022-08-18T09:21:51.642Z,86.90
2022-08-18T09:22:50.776Z,89.20
2022-08-18T09:23:50.635Z,82.40
2022-08-18T09:24:51.387Z,81.60
2022-08-18T09:25:50.759Z,80.80
2022-08-18T09:26:50.631Z,81.50
2022-08-18T09:28:11.017Z,77.80
2022-08-18T09:28:52.589Z,75.20
2022-08-18T09:29:50.588Z,77.10
2022-08-18T09:30:51.436Z,70.40
2022-08-18T09:31:50.526Z,74.60
2022-08-18T09:32:51.907Z,74.20
2022-08-18T09:33:50.785Z,71.50
2022-08-18T09:34:50.534Z,64.50
2022-08-18T09:36:51.516Z,66.10
2022-08-18T09:37:50.559Z,61.50
2022-08-18T09:38:50.482Z,60.20
2022-08-18T09:39:54.322Z,63.00
2022-08-18T09:41:02.731Z,63.20
2022-08-18T09:41:52.454Z,62.80
2022-08-18T09:42:50.677Z,64.30
2022-08-18T09:43:50.444Z,70.50
2022-08-18T09:44:50.515Z,68.90
2022-08-18T09:45:50.387Z,64.10
2022-08-18T09:46:50.387Z,63.80
2022-08-18T09:47:50.385Z,63.20
2022-08-18T09:48:50.387Z,64.20
2022-08-18T09:49:51.352Z,66.20
2022-08-18T09:50:50.528Z,65.00
2022-08-18T09:51:50.345Z,64.40
2022-08-18T09:52:50.482Z,67.40
2022-08-18T09:53:50.314Z,67.60
2022-08-18T09:54:50.320Z,67.30
2022-08-18T09:55:52.005Z,67.50
2022-08-18T09:57:51.273Z,63.70
2022-08-18T09:58:50.254Z,66.60
2022-08-18T09:59:50.349Z,63.30
2022-08-18T10:00:50.310Z,61.20
2022-08-18T10:01:52.478Z,59.80
2022-08-18T10:02:50.229Z,59.80
2022-08-18T10:03:50.213Z,62.90
2022-08-18T10:04:50.197Z,61.30
2022-08-18T10:05:50.193Z,62.70
2022-08-18T10:06:51.626Z,59.40
2022-08-18T10:07:50.189Z,59.00
2022-08-18T10:08:50.137Z,57.40
2022-08-18T10:09:50.200Z,58.70
2022-08-18T10:11:51.178Z,60.20
2022-08-18T10:12:50.343Z,56.60
2022-08-18T10:13:51.109Z,57.70
2022-08-18T10:14:50.099Z,58.70
2022-08-18T10:15:50.072Z,58.30
2022-08-18T10:17:23.818Z,57.10
2022-08-18T10:17:52.071Z,53.40
2022-08-18T10:18:50.077Z,55.60
2022-08-18T10:19:50.052Z,57.10
2022-08-18T10:20:50.934Z,58.00
2022-08-18T10:21:50.067Z,60.40
2022-08-18T10:22:51.195Z,56.90
2022-08-18T10:24:02.873Z,53.20
2022-08-18T10:24:52.898Z,56.30
2022-08-18T10:25:49.974Z,51.50
2022-08-18T10:26:54.555Z,57.00
2022-08-18T10:27:50.959Z,64.00
2022-08-18T10:28:49.937Z,60.60
2022-08-18T10:29:50.034Z,62.80
2022-08-18T10:30:57.089Z,57.50
2022-08-18T10:31:54.158Z,60.40
2022-08-18T10:32:53.932Z,62.80
2022-08-18T10:33:49.883Z,59.40
2022-08-18T10:34:52.503Z,60.80
2022-08-18T10:35:49.909Z,61.40
2022-08-18T10:36:49.861Z,62.60
2022-08-18T10:37:50.820Z,58.70
2022-08-18T10:38:50.496Z,59.80
2022-08-18T10:39:50.084Z,56.50
2022-08-18T10:40:49.807Z,56.80
2022-08-18T10:41:49.820Z,52.50
2022-08-18T10:42:53.467Z,55.90
2022-08-18T10:43:57.572Z,57.00
2022-08-18T10:44:50.866Z,57.70
2022-08-18T10:46:23.099Z,57.80
2022-08-18T10:46:51.767Z,53.70
2022-08-18T10:47:49.775Z,53.50
2022-08-18T10:48:49.744Z,69.90
2022-08-18T10:49:49.710Z,69.30
2022-08-18T10:50:49.711Z,76.50
2022-08-18T10:52:00.032Z,80.10
2022-08-18T10:52:58.898Z,77.40
2022-08-18T10:53:53.609Z,74.80
2022-08-18T10:54:54.148Z,77.10
2022-08-18T10:55:50.956Z,78.40
2022-08-18T10:56:50.043Z,74.20
2022-08-18T10:57:50.943Z,78.60
2022-08-18T10:58:50.055Z,74.40
2022-08-18T10:59:54.550Z,77.30
2022-08-18T11:00:51.658Z,76.30
2022-08-18T11:01:50.460Z,74.40
2022-08-18T11:02:50.828Z,70.80
2022-08-18T11:03:51.827Z,71.30
2022-08-18T11:05:50.621Z,72.30
2022-08-18T11:06:49.601Z,69.00
2022-08-18T11:07:52.150Z,70.70
2022-08-18T11:08:54.743Z,66.40
2022-08-18T11:09:57.156Z,67.90
2022-08-18T11:12:50.521Z,61.70
2022-08-18T11:13:49.618Z,71.80
2022-08-18T11:14:49.999Z,68.50
2022-08-18T11:15:50.494Z,63.30
2022-08-18T11:16:49.628Z,65.40
2022-08-18T11:17:49.523Z,64.90
2022-08-18T11:18:49.776Z,67.60
2022-08-18T11:19:50.734Z,71.90
2022-08-18T11:20:49.440Z,64.80
2022-08-18T11:21:51.249Z,61.80
2022-08-18T11:22:49.548Z,65.50
2022-08-18T11:23:49.628Z,60.90
2022-08-18T11:24:49.437Z,61.40
2022-08-18T11:25:49.705Z,58.80
2022-08-18T11:26:52.976Z,58.40
2022-08-18T11:27:49.410Z,57.10
2022-08-18T11:28:49.999Z,54.50
2022-08-18T11:29:50.608Z,55.50
2022-08-18T11:30:49.719Z,55.40
2022-08-18T11:31:52.812Z,56.20
2022-08-18T11:32:52.243Z,54.60
2022-08-18T11:33:51.412Z,52.20
2022-08-18T11:34:53.263Z,54.20
2022-08-18T11:35:49.292Z,52.90
2022-08-18T11:36:50.062Z,53.60
2022-08-18T11:37:53.284Z,50.60
2022-08-18T11:38:50.189Z,49.00
2022-08-18T11:39:49.647Z,51.40
2022-08-18T11:41:09.759Z,54.50
2022-08-18T11:41:52.945Z,47.80
2022-08-18T11:42:51.808Z,52.40
2022-08-18T11:43:50.831Z,54.20
2022-08-18T11:44:49.214Z,58.20
2022-08-18T11:45:49.197Z,52.60
2022-08-18T11:46:51.991Z,52.40
2022-08-18T11:47:49.201Z,51.30
2022-08-18T11:48:52.168Z,50.70
2022-08-18T11:49:49.125Z,50.70
2022-08-18T11:50:54.736Z,48.40
2022-08-18T11:51:49.120Z,50.10
2022-08-18T11:52:49.190Z,47.30
2022-08-18T11:53:57.367Z,51.50
2022-08-18T11:54:54.047Z,49.40
2022-08-18T11:55:53.299Z,49.40
2022-08-18T11:56:49.060Z,49.10
2022-08-18T11:57:49.394Z,48.80
2022-08-18T11:58:50.666Z,52.20
2022-08-18T12:00:50.040Z,54.40
2022-08-18T12:01:51.465Z,53.80
2022-08-18T12:02:49.537Z,52.60
2022-08-18T12:03:50.461Z,48.20
2022-08-18T12:04:50.787Z,49.40
2022-08-18T12:05:55.973Z,56.10
2022-08-18T12:06:50.347Z,49.20
2022-08-18T12:07:57.239Z,51.10
2022-08-18T12:08:57.023Z,51.60
2022-08-18T12:10:52.501Z,52.10
2022-08-18T12:11:50.893Z,45.50
2022-08-18T12:12:50.189Z,45.60
2022-08-18T12:13:51.268Z,50.70
2022-08-18T12:14:48.889Z,48.70
2022-08-18T12:15:49.207Z,50.80
2022-08-18T12:18:50.289Z,49.50
2022-08-18T12:19:49.488Z,47.50
2022-08-18T12:20:49.278Z,49.70
2022-08-18T12:21:50.938Z,48.90
2022-08-18T12:22:51.301Z,52.10
2022-08-18T12:23:52.290Z,51.10
2022-08-18T12:24:48.757Z,46.10
2022-08-18T12:25:51.613Z,48.50
2022-08-18T12:26:48.738Z,49.80
2022-08-18T12:27:48.752Z,41.80
2022-08-18T12:28:49.241Z,45.20
2022-08-18T12:29:49.348Z,47.50
2022-08-18T12:30:48.683Z,47.40
2022-08-18T12:31:49.023Z,47.10
2022-08-18T12:33:00.937Z,46.10
2022-08-18T12:34:00.842Z,50.60
2022-08-18T12:34:51.869Z,43.60
2022-08-18T12:35:49.050Z,45.10
2022-08-18T12:36:49.296Z,45.40
2022-08-18T12:38:12.904Z,44.50
2022-08-18T12:39:49.694Z,43.40
2022-08-18T12:40:48.601Z,41.30
2022-08-18T12:41:48.610Z,39.90
2022-08-18T12:42:48.686Z,41.20
2022-08-18T12:43:58.380Z,42.10
2022-08-18T12:44:51.590Z,40.80
2022-08-18T12:45:49.743Z,36.50
2022-08-18T12:46:50.158Z,39.40
2022-08-18T12:47:48.911Z,38.50
2022-08-18T12:48:49.179Z,39.70
2022-08-18T12:49:48.499Z,39.70
2022-08-18T12:51:50.714Z,37.30
2022-08-18T12:52:48.492Z,39.50
2022-08-18T12:53:58.497Z,38.30
2022-08-18T12:54:55.171Z,35.30
2022-08-18T12:55:49.396Z,34.10
2022-08-18T12:56:48.414Z,34.20
2022-08-18T12:57:53.398Z,32.30
2022-08-18T12:58:49.369Z,34.40
2022-08-18T12:59:48.360Z,34.20
2022-08-18T13:00:49.006Z,33.40
2022-08-18T13:01:48.385Z,31.00
2022-08-18T13:02:48.405Z,37.30